createdAt,value
2023-05-05T03:41:20.916Z,100318.09
2023-05-05T03:44:25.447Z,100328.03
2023-05-05T03:47:59.308Z,100326.06
2023-05-05T03:57:01.820Z,100347.41
2023-05-05T04:12:52.488Z,100393.81
2023-05-05T04:15:22.310Z,100391.84
2023-05-05T04:17:52.430Z,100395.78
2023-05-05T04:20:22.477Z,100401.72
2023-05-05T04:22:52.743Z,100388.66
2023-05-05T04:25:23.328Z,100378.34
2023-05-05T04:27:53.101Z,100374.38
2023-05-05T04:30:23.488Z,100372.00
2023-05-05T04:32:53.334Z,100385.88
2023-05-05T04:35:23.267Z,100388.25
2023-05-05T04:38:03.037Z,100392.22
2023-05-05T04:40:33.643Z,100390.22
2023-05-05T04:43:04.120Z,100378.34
2023-05-05T04:45:34.311Z,100363.31
2023-05-05T04:48:10.295Z,100356.97
2023-05-05T04:51:00.583Z,100353.00
2023-05-05T04:53:59.922Z,100348.59
2023-05-05T04:56:35.934Z,100344.28
2023-05-05T04:59:05.932Z,100348.66
2023-05-05T05:01:39.696Z,100355.38
2023-05-05T05:04:19.100Z,100357.34
2023-05-05T05:06:48.363Z,100356.19
2023-05-05T05:09:20.320Z,100344.28
2023-05-05T05:11:53.469Z,100339.53
2023-05-05T05:14:23.999Z,100334.78
2023-05-05T05:16:59.301Z,100339.94
2023-05-05T05:19:31.716Z,100334.75
2023-05-05T05:22:01.561Z,100340.69
2023-05-05T05:24:32.678Z,100345.06
2023-05-05T05:27:10.387Z,100346.66
2023-05-05T05:29:43.668Z,100350.59
2023-05-05T05:32:15.841Z,100354.97
2023-05-05T05:34:46.540Z,100352.94
2023-05-05T05:37:16.835Z,100358.53
2023-05-05T05:39:51.950Z,100360.13
2023-05-05T05:42:23.037Z,100367.25
2023-05-05T05:44:52.418Z,100367.22
2023-05-05T05:47:21.912Z,100367.66
2023-05-05T05:49:52.162Z,100361.72
2023-05-05T05:52:35.506Z,100366.44
2023-05-05T05:55:07.426Z,100366.47
2023-05-05T05:57:37.213Z,100368.78
2023-05-05T06:00:09.211Z,100372.00
2023-05-05T06:02:41.039Z,100384.63
2023-05-05T06:05:16.687Z,100377.03
2023-05-05T06:07:49.421Z,100377.50
2023-05-05T06:10:28.089Z,100390.94
2023-05-05T06:13:18.476Z,100395.00
2023-05-05T06:15:53.659Z,100404.50
2023-05-05T06:18:24.235Z,100403.31
2023-05-05T06:20:53.590Z,100410.81
2023-05-05T06:23:27.284Z,100414.00
2023-05-05T06:26:01.202Z,100417.88
2023-05-05T06:28:32.499Z,100418.28
2023-05-05T06:31:01.626Z,100416.31
2023-05-05T06:33:30.961Z,100415.53
2023-05-05T06:35:59.999Z,100403.66
2023-05-05T06:38:29.230Z,100383.06
2023-05-05T06:40:59.456Z,100382.69
2023-05-05T06:43:33.812Z,100375.97
2023-05-05T06:46:08.309Z,100377.53
2023-05-05T06:48:40.168Z,100359.28
2023-05-05T06:51:11.068Z,100351.41
2023-05-05T06:53:46.447Z,100361.66
2023-05-05T06:56:15.556Z,100357.69
2023-05-05T06:58:44.712Z,100368.78
2023-05-05T07:01:14.138Z,100367.16
2023-05-05T07:03:46.091Z,100376.28
2023-05-05T07:06:15.297Z,100377.47
2023-05-05T07:08:44.334Z,100379.84
2023-05-05T07:11:14.539Z,100381.44
2023-05-05T07:13:43.905Z,100381.44
2023-05-05T07:16:13.010Z,100387.78
2023-05-05T07:18:42.082Z,100386.22
2023-05-05T07:21:11.221Z,100384.63
2023-05-05T07:23:41.455Z,100397.28
2023-05-05T07:26:10.978Z,100388.59
2023-05-05T07:28:45.857Z,100378.69
2023-05-05T07:31:17.238Z,100379.06
2023-05-05T07:33:47.280Z,100371.16
2023-05-05T07:36:17.824Z,100365.56
2023-05-05T07:38:47.346Z,100370.72
2023-05-05T07:41:16.952Z,100364.00
2023-05-05T07:43:49.115Z,100367.16
2023-05-05T07:46:18.997Z,100364.78
2023-05-05T07:48:48.141Z,100362.41
2023-05-05T07:51:17.220Z,100352.13
2023-05-05T07:53:46.566Z,100340.22
2023-05-05T07:56:15.959Z,100344.94
2023-05-05T07:58:46.189Z,100344.56
2023-05-05T08:01:15.476Z,100349.69
2023-05-05T08:03:44.595Z,100364.72
2023-05-05T08:06:22.801Z,100365.13
2023-05-05T08:08:54.225Z,100363.97
2023-05-05T08:11:23.373Z,100369.53
2023-05-05T08:13:54.937Z,100371.09
2023-05-05T08:16:24.415Z,100373.09
2023-05-05T08:18:53.650Z,100374.69
2023-05-05T08:21:22.848Z,100369.53
2023-05-05T08:23:51.871Z,100374.31
2023-05-05T08:26:21.082Z,100375.13
2023-05-05T08:28:50.239Z,100383.41
2023-05-05T08:31:21.924Z,100377.44
2023-05-05T08:33:51.119Z,100369.91
2023-05-05T08:36:20.361Z,100377.41
2023-05-05T08:38:49.410Z,100377.41
2023-05-05T08:41:21.832Z,100379.41
2023-05-05T08:43:51.390Z,100384.59
2023-05-05T08:46:21.042Z,100390.94
2023-05-05T08:48:50.841Z,100381.00
2023-05-05T08:51:21.497Z,100369.50
2023-05-05T08:53:50.699Z,100368.75
2023-05-05T08:56:27.784Z,100359.59
2023-05-05T08:58:58.363Z,100359.16
2023-05-05T09:01:28.556Z,100355.63
2023-05-05T09:04:00.326Z,100350.53
2023-05-05T09:06:35.711Z,100345.75
2023-05-05T09:09:05.514Z,100346.16
2023-05-05T09:11:36.757Z,100352.91
2023-05-05T09:14:06.365Z,100346.53
2023-05-05T09:16:35.629Z,100342.53
2023-05-05T09:19:07.916Z,100334.66
2023-05-05T09:21:50.251Z,100327.44
2023-05-05T09:24:19.898Z,100325.00
2023-05-05T09:26:51.947Z,100315.91
2023-05-05T09:29:22.587Z,100309.63
2023-05-05T09:32:12.034Z,100308.38
2023-05-05T09:34:41.384Z,100303.66
2023-05-05T09:37:10.492Z,100298.56
2023-05-05T09:39:56.169Z,100299.75
2023-05-05T09:42:25.645Z,100294.22
2023-05-05T09:44:57.340Z,100298.91
2023-05-05T09:47:38.265Z,100285.47
2023-05-05T09:50:08.226Z,100287.81
2023-05-05T09:52:38.220Z,100289.44
2023-05-05T09:55:09.288Z,100295.00
2023-05-05T09:57:39.426Z,100293.34
2023-05-05T10:00:12.278Z,100298.94
2023-05-05T10:02:41.794Z,100301.69
2023-05-05T10:05:16.155Z,100305.22
2023-05-05T10:07:47.685Z,100299.75
2023-05-05T10:10:19.215Z,100312.78
2023-05-05T10:12:50.493Z,100321.06
2023-05-05T10:15:20.135Z,100315.53
2023-05-05T10:18:06.111Z,100314.75
2023-05-05T10:20:39.803Z,100326.56
2023-05-05T10:23:11.621Z,100325.03
2023-05-05T10:25:48.099Z,100332.91
2023-05-05T10:28:24.803Z,100317.94
2023-05-05T10:30:58.299Z,100327.72
2023-05-05T10:33:42.039Z,100322.25
2023-05-05T10:36:11.973Z,100317.56
2023-05-05T10:38:42.166Z,100313.91
2023-05-05T10:41:13.524Z,100315.84
2023-05-05T10:43:43.677Z,100304.44
2023-05-05T10:46:16.073Z,100304.03
2023-05-05T10:49:06.944Z,100305.63
2023-05-05T10:51:58.432Z,100309.53
2023-05-05T10:54:54.957Z,100307.59
2023-05-05T10:58:08.373Z,100322.97
2023-05-05T11:00:40.839Z,100324.84
2023-05-05T11:03:20.760Z,100325.34
2023-05-05T11:06:06.731Z,100328.81
2023-05-05T11:08:49.931Z,100323.38
2023-05-05T11:11:44.333Z,100317.09
2023-05-05T11:14:25.891Z,100315.47
2023-05-05T11:16:56.038Z,100307.94
2023-05-05T11:19:46.750Z,100313.13
2023-05-05T11:22:19.120Z,100308.78
2023-05-05T11:24:54.312Z,100316.94
2023-05-05T11:27:27.392Z,100317.84
2023-05-05T11:30:16.008Z,100320.09
2023-05-05T11:33:23.954Z,100313.78
2023-05-05T11:36:22.511Z,100313.69
2023-05-05T11:39:06.780Z,100313.78
2023-05-05T11:41:59.056Z,100303.44
2023-05-05T11:44:34.907Z,100306.66
2023-05-05T11:47:06.714Z,100299.84
2023-05-05T11:49:41.213Z,100294.41
2023-05-05T11:52:16.199Z,100293.28
2023-05-05T11:54:49.871Z,100293.97
2023-05-05T11:57:36.210Z,100289.97
2023-05-05T12:00:08.337Z,100278.59
2023-05-05T12:02:42.365Z,100287.59
2023-05-05T12:05:12.365Z,100293.13
2023-05-05T12:07:46.713Z,100296.00
2023-05-05T12:10:44.777Z,100301.91
2023-05-05T12:14:15.019Z,100301.09
2023-05-05T12:16:57.146Z,100298.75
2023-05-05T12:19:33.802Z,100301.22
2023-05-05T12:22:06.710Z,100298.41
2023-05-05T12:24:36.263Z,100309.78
2023-05-05T12:27:36.455Z,100310.50
2023-05-05T12:30:24.499Z,100312.81
2023-05-05T12:38:30.154Z,100310.50
2023-05-05T12:42:02.718Z,100323.28
2023-05-05T12:44:57.169Z,100321.66
2023-05-05T12:55:02.895Z,100331.91
2023-05-05T12:57:36.077Z,100337.03
2023-05-05T13:00:33.926Z,100327.59
2023-05-05T13:03:40.050Z,100330.78
2023-05-05T13:06:22.762Z,100330.28
2023-05-05T13:09:20.067Z,100330.41
2023-05-05T13:12:05.052Z,100332.59
2023-05-05T13:14:55.368Z,100331.56
2023-05-05T13:17:31.469Z,100330.94
2023-05-05T13:20:05.269Z,100331.78
2023-05-05T13:22:43.166Z,100327.91
2023-05-05T13:25:13.154Z,100329.53
2023-05-05T13:27:45.353Z,100336.59
2023-05-05T13:30:15.205Z,100333.38
2023-05-05T13:32:44.729Z,100335.81
2023-05-05T13:35:15.531Z,100341.28
2023-05-05T13:38:08.229Z,100346.16
2023-05-05T13:40:41.656Z,100341.84
2023-05-05T13:43:11.062Z,100341.00
2023-05-05T13:45:46.825Z,100334.09
2023-05-05T13:48:35.392Z,100349.25
2023-05-05T13:51:17.087Z,100340.63
2023-05-05T14:05:41.078Z,100340.94
2023-05-05T14:11:15.306Z,100354.63
2023-05-05T14:14:22.807Z,100351.34
2023-05-05T14:16:55.857Z,100351.41
2023-05-05T14:19:35.327Z,100344.16
2023-05-05T14:22:58.773Z,100343.78
2023-05-05T14:30:20.435Z,100332.63
2023-05-05T14:36:27.757Z,100335.81
2023-05-05T14:39:44.568Z,100337.91
2023-05-05T14:42:38.827Z,100355.44
2023-05-05T14:45:12.167Z,100350.75
2023-05-05T14:47:54.161Z,100347.25
2023-05-05T14:50:53.193Z,100348.38
2023-05-05T14:53:41.116Z,100340.56
2023-05-05T14:56:27.774Z,100343.78
2023-05-05T14:59:13.243Z,100348.56
2023-05-05T15:01:49.258Z,100362.84
2023-05-05T15:04:25.183Z,100365.09
2023-05-05T15:07:00.730Z,100372.28
2023-05-05T15:09:36.038Z,100378.06
2023-05-05T15:12:09.620Z,100369.88
2023-05-05T15:14:42.257Z,100374.59
2023-05-05T15:17:17.513Z,100378.63
2023-05-05T15:19:50.810Z,100369.16
2023-05-05T15:22:23.778Z,100381.00
2023-05-05T15:24:55.203Z,100380.25
2023-05-05T15:27:32.727Z,100377.09
2023-05-05T15:30:02.742Z,100381.13
2023-05-05T15:32:32.048Z,100385.44
2023-05-05T15:35:07.952Z,100387.44
2023-05-05T15:38:03.416Z,100387.38
2023-05-05T15:40:46.639Z,100382.59
2023-05-05T15:43:35.047Z,100375.56
2023-05-05T15:46:04.319Z,100384.25
2023-05-05T15:48:38.475Z,100382.97
2023-05-05T15:51:27.229Z,100379.53
2023-05-05T15:53:58.480Z,100381.88
2023-05-05T15:56:30.502Z,100387.78
2023-05-05T15:58:59.698Z,100388.44
2023-05-05T16:01:34.482Z,100385.38
2023-05-05T16:04:11.822Z,100384.59
2023-05-05T16:06:42.933Z,100387.78
2023-05-05T16:09:16.572Z,100396.97
2023-05-05T16:11:57.904Z,100391.00
2023-05-05T16:14:42.879Z,100398.44
2023-05-05T16:17:28.878Z,100406.47
2023-05-05T16:20:35.880Z,100407.28
2023-05-05T16:23:30.622Z,100408.81
2023-05-05T16:26:25.127Z,100405.69
2023-05-05T16:29:08.852Z,100411.16
2023-05-05T16:32:45.074Z,100421.56
2023-05-05T16:35:14.648Z,100423.50
2023-05-05T16:38:12.259Z,100423.88
2023-05-05T16:41:14.165Z,100429.13
2023-05-05T16:44:37.522Z,100425.47
2023-05-05T16:47:36.342Z,100430.19
2023-05-05T16:53:49.156Z,100432.53
2023-05-05T16:56:24.550Z,100429.41
2023-05-05T16:59:15.206Z,100420.81
2023-05-05T17:02:00.894Z,100422.34
2023-05-05T17:05:01.312Z,100426.72
2023-05-05T17:08:03.970Z,100436.66
2023-05-05T17:10:34.419Z,100434.56
2023-05-05T17:13:18.779Z,100434.16
2023-05-05T17:16:01.965Z,100432.97
2023-05-05T17:18:40.627Z,100432.59
2023-05-05T17:21:21.930Z,100439.88
2023-05-05T17:23:58.795Z,100438.22
2023-05-05T17:26:33.829Z,100442.13
2023-05-05T17:29:05.604Z,100449.16
2023-05-05T17:31:34.888Z,100444.53
2023-05-05T17:34:09.502Z,100441.41
2023-05-05T17:36:38.920Z,100444.44
2023-05-05T17:39:23.906Z,100444.13
2023-05-05T17:42:29.795Z,100447.81
2023-05-05T17:45:08.486Z,100455.66
2023-05-05T17:47:54.060Z,100462.81
2023-05-05T17:58:48.362Z,100476.72
2023-05-05T18:01:27.606Z,100474.75
2023-05-05T18:04:08.254Z,100478.34
2023-05-05T18:06:52.430Z,100474.69
2023-05-05T18:09:27.276Z,100481.91
2023-05-05T18:12:16.721Z,100482.75
2023-05-05T18:15:33.949Z,100479.47
2023-05-05T18:18:31.845Z,100481.97
2023-05-05T18:21:15.216Z,100478.72
2023-05-05T18:24:15.700Z,100488.28
2023-05-05T18:27:02.153Z,100489.09
2023-05-05T18:30:09.517Z,100490.66
2023-05-05T18:32:56.228Z,100493.84
2023-05-05T18:35:41.007Z,100499.34
2023-05-05T18:38:50.415Z,100499.72
2023-05-05T18:41:20.587Z,100497.81
2023-05-05T18:44:10.165Z,100501.66
2023-05-05T18:47:11.160Z,100499.34
2023-05-05T18:49:49.814Z,100493.91
2023-05-05T18:52:39.500Z,100499.44
2023-05-05T18:55:32.968Z,100504.19
2023-05-05T18:58:58.988Z,100511.66
2023-05-05T19:02:31.428Z,100514.38
2023-05-05T19:06:03.968Z,100522.41
2023-05-05T19:09:29.984Z,100520.38
2023-05-05T19:12:51.766Z,100523.19
2023-05-05T19:16:10.128Z,100527.91
2023-05-05T19:21:46.541Z,100536.75
2023-05-05T19:24:18.306Z,100541.81
2023-05-05T19:27:33.941Z,100542.59
2023-05-05T19:30:39.988Z,100551.63
2023-05-05T19:34:35.274Z,100555.69
2023-05-05T19:37:28.446Z,100562.88
2023-05-05T19:40:30.316Z,100561.25
2023-05-05T19:43:42.347Z,100569.41
2023-05-05T19:47:37.575Z,100567.09
2023-05-05T19:50:57.097Z,100575.06
2023-05-05T19:54:45.834Z,100575.50
2023-05-05T19:57:51.734Z,100576.31
2023-05-05T20:00:48.898Z,100580.28
2023-05-05T20:03:39.958Z,100574.78
2023-05-05T20:06:41.150Z,100577.78
2023-05-05T20:10:29.062Z,100584.97
2023-05-05T20:13:37.159Z,100580.31
2023-05-05T20:16:36.264Z,100575.56
2023-05-05T20:19:35.959Z,100587.91
2023-05-05T20:22:38.861Z,100593.16
2023-05-05T20:25:42.842Z,100604.16
2023-05-05T20:28:44.176Z,100598.94
2023-05-05T20:31:35.229Z,100593.34
2023-05-05T20:34:18.299Z,100593.94
2023-05-05T20:41:23.990Z,100600.59
2023-05-05T20:44:05.731Z,100603.06
2023-05-05T20:47:15.143Z,100602.44
2023-05-05T20:50:36.559Z,100599.63
2023-05-05T20:53:51.167Z,100592.97
2023-05-05T20:57:11.221Z,100588.41
2023-05-05T20:59:56.901Z,100590.69
2023-05-05T21:02:41.878Z,100607.84
2023-05-05T21:05:59.163Z,100621.72
2023-05-05T21:14:18.835Z,100639.81
2023-05-05T21:24:31.968Z,100641.31
2023-05-05T21:27:46.935Z,100639.06
2023-05-05T21:31:21.651Z,100650.75
2023-05-05T21:39:51.032Z,100668.66
2023-05-05T22:21:39.941Z,100696.09
2023-05-05T22:37:58.683Z,100707.44
2023-05-05T23:36:43.176Z,100709.91
2023-05-05T23:39:37.669Z,100720.19
2023-05-05T23:43:05.166Z,100708.31
2023-05-05T23:46:24.735Z,100690.75
2023-05-05T23:49:50.880Z,100705.09
2023-05-05T23:53:03.809Z,100703.19
2023-05-05T23:57:24.918Z,100707.47
